sensor_id;sensor_type;location;lat;lon;timestamp;temperature;humidity
22917;DHT22;11624;53.250;7.456;2023-07-13T00:01:14;22.77;48.10
22917;DHT22;11624;53.250;7.456;2023-07-13T00:03:42;22.73;48.34
22917;DHT22;11624;53.250;7.456;2023-07-13T00:06:11;22.76;48.35
22917;DHT22;11624;53.250;7.456;2023-07-13T00:08:39;22.76;48.42
22917;DHT22;11624;53.250;7.456;2023-07-13T00:11:08;22.73;48.48
22917;DHT22;11624;53.250;7.456;2023-07-13T00:13:38;22.67;48.84
22917;DHT22;11624;53.250;7.456;2023-07-13T00:16:08;22.67;48.90
22917;DHT22;11624;53.250;7.456;2023-07-13T00:18:38;22.65;48.98
22917;DHT22;11624;53.250;7.456;2023-07-13T00:21:06;22.61;49.16
22917;DHT22;11624;53.250;7.456;2023-07-13T00:23:36;22.60;49.21
22917;DHT22;11624;53.250;7.456;2023-07-13T00:26:07;22.56;49.18
22917;DHT22;11624;53.250;7.456;2023-07-13T00:28:37;22.51;49.27
22917;DHT22;11624;53.250;7.456;2023-07-13T00:31:09;22.47;49.32
22917;DHT22;11624;53.250;7.456;2023-07-13T00:33:37;22.40;49.58
22917;DHT22;11624;53.250;7.456;2023-07-13T00:36:09;22.36;49.50
22917;DHT22;11624;53.250;7.456;2023-07-13T00:38:38;22.36;49.63
22917;DHT22;11624;53.250;7.456;2023-07-13T00:41:08;22.34;49.64
22917;DHT22;11624;53.250;7.456;2023-07-13T00:43:36;22.25;49.87
22917;DHT22;11624;53.250;7.456;2023-07-13T00:46:27;22.20;49.66
22917;DHT22;11624;53.250;7.456;2023-07-13T00:48:59;22.26;49.67
22917;DHT22;11624;53.250;7.456;2023-07-13T00:51:32;22.21;49.73
22917;DHT22;11624;53.250;7.456;2023-07-13T00:54:05;22.19;49.92
22917;DHT22;11624;53.250;7.456;2023-07-13T00:56:34;22.14;50.17
22917;DHT22;11624;53.250;7.456;2023-07-13T00:59:04;22.14;50.21
22917;DHT22;11624;53.250;7.456;2023-07-13T01:01:36;22.20;50.01
22917;DHT22;11624;53.250;7.456;2023-07-13T01:04:06;22.19;50.03
22917;DHT22;11624;53.250;7.456;2023-07-13T01:06:36;22.17;50.18
22917;DHT22;11624;53.250;7.456;2023-07-13T01:09:06;22.13;50.34
22917;DHT22;11624;53.250;7.456;2023-07-13T01:11:35;22.16;50.32
22917;DHT22;11624;53.250;7.456;2023-07-13T01:14:04;22.18;50.38
22917;DHT22;11624;53.250;7.456;2023-07-13T01:16:34;22.16;50.50
22917;DHT22;11624;53.250;7.456;2023-07-13T01:19:11;22.13;50.43
22917;DHT22;11624;53.250;7.456;2023-07-13T01:21:43;22.19;50.57
22917;DHT22;11624;53.250;7.456;2023-07-13T01:24:11;22.19;50.69
22917;DHT22;11624;53.250;7.456;2023-07-13T01:26:39;22.25;50.57
22917;DHT22;11624;53.250;7.456;2023-07-13T01:29:08;22.09;51.27
22917;DHT22;11624;53.250;7.456;2023-07-13T01:31:38;22.19;50.90
22917;DHT22;11624;53.250;7.456;2023-07-13T01:34:06;22.24;50.69
22917;DHT22;11624;53.250;7.456;2023-07-13T01:36:36;22.07;51.30
22917;DHT22;11624;53.250;7.456;2023-07-13T01:39:06;22.13;51.06
22917;DHT22;11624;53.250;7.456;2023-07-13T01:41:35;22.13;51.17
22917;DHT22;11624;53.250;7.456;2023-07-13T01:44:04;22.18;51.05
22917;DHT22;11624;53.250;7.456;2023-07-13T01:46:33;22.26;50.94
22917;DHT22;11624;53.250;7.456;2023-07-13T01:49:01;22.27;50.99
22917;DHT22;11624;53.250;7.456;2023-07-13T01:51:30;22.22;51.27
22917;DHT22;11624;53.250;7.456;2023-07-13T01:53:58;22.24;51.19
22917;DHT22;11624;53.250;7.456;2023-07-13T01:56:28;22.06;51.98
22917;DHT22;11624;53.250;7.456;2023-07-13T01:58:56;22.06;51.92
22917;DHT22;11624;53.250;7.456;2023-07-13T02:01:25;22.29;51.29
22917;DHT22;11624;53.250;7.456;2023-07-13T02:03:54;22.38;51.04
22917;DHT22;11624;53.250;7.456;2023-07-13T02:06:22;22.36;51.15
22917;DHT22;11624;53.250;7.456;2023-07-13T02:08:50;22.40;51.08
22917;DHT22;11624;53.250;7.456;2023-07-13T02:11:19;22.35;51.36
22917;DHT22;11624;53.250;7.456;2023-07-13T02:13:49;22.40;51.20
22917;DHT22;11624;53.250;7.456;2023-07-13T02:16:17;22.38;51.37
22917;DHT22;11624;53.250;7.456;2023-07-13T02:18:46;22.42;51.33
22917;DHT22;11624;53.250;7.456;2023-07-13T02:21:14;22.39;51.53
22917;DHT22;11624;53.250;7.456;2023-07-13T02:23:42;22.21;52.25
22917;DHT22;11624;53.250;7.456;2023-07-13T02:26:11;22.38;51.72
22917;DHT22;11624;53.250;7.456;2023-07-13T02:28:39;22.39;51.81
22917;DHT22;11624;53.250;7.456;2023-07-13T02:31:11;22.31;52.07
22917;DHT22;11624;53.250;7.456;2023-07-13T02:33:40;22.38;52.04
22917;DHT22;11624;53.250;7.456;2023-07-13T02:36:09;22.40;51.96
22917;DHT22;11624;53.250;7.456;2023-07-13T02:38:37;22.46;51.95
22917;DHT22;11624;53.250;7.456;2023-07-13T02:41:06;22.38;52.18
22917;DHT22;11624;53.250;7.456;2023-07-13T02:43:36;22.41;52.14
22917;DHT22;11624;53.250;7.456;2023-07-13T02:46:09;22.48;52.03
22917;DHT22;11624;53.250;7.456;2023-07-13T02:48:38;22.53;51.86
22917;DHT22;11624;53.250;7.456;2023-07-13T02:51:07;22.57;51.82
22917;DHT22;11624;53.250;7.456;2023-07-13T02:53:36;22.54;52.04
22917;DHT22;11624;53.250;7.456;2023-07-13T02:56:05;22.48;52.42
22917;DHT22;11624;53.250;7.456;2023-07-13T02:58:34;22.44;52.58
22917;DHT22;11624;53.250;7.456;2023-07-13T03:01:07;22.41;52.91
22917;DHT22;11624;53.250;7.456;2023-07-13T03:03:37;22.35;53.18
22917;DHT22;11624;53.250;7.456;2023-07-13T03:06:06;22.38;53.14
22917;DHT22;11624;53.250;7.456;2023-07-13T03:08:44;22.35;53.33
22917;DHT22;11624;53.250;7.456;2023-07-13T03:11:15;22.24;53.84
22917;DHT22;11624;53.250;7.456;2023-07-13T03:13:47;22.24;53.95
22917;DHT22;11624;53.250;7.456;2023-07-13T03:16:16;22.28;53.85
22917;DHT22;11624;53.250;7.456;2023-07-13T03:18:49;22.35;53.61
22917;DHT22;11624;53.250;7.456;2023-07-13T03:21:17;22.36;53.68
22917;DHT22;11624;53.250;7.456;2023-07-13T03:23:46;22.41;53.67
22917;DHT22;11624;53.250;7.456;2023-07-13T03:26:18;22.33;53.87
22917;DHT22;11624;53.250;7.456;2023-07-13T03:28:48;22.38;53.74
22917;DHT22;11624;53.250;7.456;2023-07-13T03:31:22;22.33;53.84
22917;DHT22;11624;53.250;7.456;2023-07-13T03:33:53;22.41;53.65
22917;DHT22;11624;53.250;7.456;2023-07-13T03:36:23;22.44;53.60
22917;DHT22;11624;53.250;7.456;2023-07-13T03:38:57;22.32;53.81
22917;DHT22;11624;53.250;7.456;2023-07-13T03:41:43;22.42;53.62
22917;DHT22;11624;53.250;7.456;2023-07-13T03:44:13;22.40;53.78
22917;DHT22;11624;53.250;7.456;2023-07-13T03:46:41;22.42;53.75
22917;DHT22;11624;53.250;7.456;2023-07-13T03:49:11;22.44;53.75
22917;DHT22;11624;53.250;7.456;2023-07-13T03:51:40;22.49;53.74
22917;DHT22;11624;53.250;7.456;2023-07-13T03:54:08;22.55;53.60
22917;DHT22;11624;53.250;7.456;2023-07-13T03:56:36;22.44;54.08
22917;DHT22;11624;53.250;7.456;2023-07-13T03:59:07;22.42;54.30
22917;DHT22;11624;53.250;7.456;2023-07-13T04:01:35;22.51;54.09
22917;DHT22;11624;53.250;7.456;2023-07-13T04:04:04;22.37;54.72
22917;DHT22;11624;53.250;7.456;2023-07-13T04:06:34;22.56;54.26
22917;DHT22;11624;53.250;7.456;2023-07-13T04:09:03;22.55;54.49
22917;DHT22;11624;53.250;7.456;2023-07-13T04:11:33;22.47;54.86
22917;DHT22;11624;53.250;7.456;2023-07-13T04:14:03;22.39;55.34
22917;DHT22;11624;53.250;7.456;2023-07-13T04:16:33;22.37;55.43
22917;DHT22;11624;53.250;7.456;2023-07-13T04:19:02;22.58;54.72
22917;DHT22;11624;53.250;7.456;2023-07-13T04:21:30;22.61;54.78
22917;DHT22;11624;53.250;7.456;2023-07-13T04:24:00;22.48;55.30
22917;DHT22;11624;53.250;7.456;2023-07-13T04:26:30;22.66;54.73
22917;DHT22;11624;53.250;7.456;2023-07-13T04:28:58;22.71;54.62
22917;DHT22;11624;53.250;7.456;2023-07-13T04:31:27;22.78;54.39
22917;DHT22;11624;53.250;7.456;2023-07-13T04:33:55;22.73;54.60
22917;DHT22;11624;53.250;7.456;2023-07-13T04:36:24;22.77;54.49
22917;DHT22;11624;53.250;7.456;2023-07-13T04:38:54;22.73;54.69
22917;DHT22;11624;53.250;7.456;2023-07-13T04:41:23;22.82;54.43
22917;DHT22;11624;53.250;7.456;2023-07-13T04:43:52;22.79;54.52
22917;DHT22;11624;53.250;7.456;2023-07-13T04:46:23;22.71;54.73
22917;DHT22;11624;53.250;7.456;2023-07-13T04:48:51;22.68;54.81
22917;DHT22;11624;53.250;7.456;2023-07-13T04:51:20;22.63;54.96
22917;DHT22;11624;53.250;7.456;2023-07-13T04:53:49;22.78;54.51
22917;DHT22;11624;53.250;7.456;2023-07-13T04:56:25;22.72;54.49
22917;DHT22;11624;53.250;7.456;2023-07-13T04:58:53;22.64;55.14
22917;DHT22;11624;53.250;7.456;2023-07-13T05:01:22;22.76;54.91
22917;DHT22;11624;53.250;7.456;2023-07-13T05:03:51;22.86;54.74
22917;DHT22;11624;53.250;7.456;2023-07-13T05:08:56;23.01;54.53
22917;DHT22;11624;53.250;7.456;2023-07-13T05:11:26;23.05;54.64
22917;DHT22;11624;53.250;7.456;2023-07-13T05:13:54;23.24;54.10
22917;DHT22;11624;53.250;7.456;2023-07-13T05:16:22;23.39;53.62
22917;DHT22;11624;53.250;7.456;2023-07-13T05:18:52;23.30;53.62
22917;DHT22;11624;53.250;7.456;2023-07-13T05:21:21;23.22;53.76
22917;DHT22;11624;53.250;7.456;2023-07-13T05:23:49;23.24;53.62
22917;DHT22;11624;53.250;7.456;2023-07-13T05:26:17;23.20;53.80
22917;DHT22;11624;53.250;7.456;2023-07-13T05:28:48;23.24;53.62
22917;DHT22;11624;53.250;7.456;2023-07-13T05:31:16;23.29;53.44
22917;DHT22;11624;53.250;7.456;2023-07-13T05:33:45;23.18;54.04
22917;DHT22;11624;53.250;7.456;2023-07-13T05:36:13;23.28;53.82
22917;DHT22;11624;53.250;7.456;2023-07-13T05:38:41;23.38;53.89
22917;DHT22;11624;53.250;7.456;2023-07-13T05:41:09;23.36;53.81
22917;DHT22;11624;53.250;7.456;2023-07-13T05:43:37;23.49;53.22
22917;DHT22;11624;53.250;7.456;2023-07-13T05:46:07;23.03;54.35
22917;DHT22;11624;53.250;7.456;2023-07-13T05:48:35;23.01;54.66
22917;DHT22;11624;53.250;7.456;2023-07-13T05:51:03;23.20;54.34
22917;DHT22;11624;53.250;7.456;2023-07-13T05:53:31;23.32;54.22
22917;DHT22;11624;53.250;7.456;2023-07-13T05:55:59;23.25;54.26
22917;DHT22;11624;53.250;7.456;2023-07-13T05:58:29;23.52;53.89
22917;DHT22;11624;53.250;7.456;2023-07-13T06:01:02;23.36;54.02
22917;DHT22;11624;53.250;7.456;2023-07-13T06:03:32;23.38;54.29
22917;DHT22;11624;53.250;7.456;2023-07-13T06:06:00;23.51;54.18
22917;DHT22;11624;53.250;7.456;2023-07-13T06:08:29;23.45;54.39
22917;DHT22;11624;53.250;7.456;2023-07-13T06:11:03;23.57;53.80
22917;DHT22;11624;53.250;7.456;2023-07-13T06:13:31;23.67;53.69
22917;DHT22;11624;53.250;7.456;2023-07-13T06:16:00;23.81;53.52
22917;DHT22;11624;53.250;7.456;2023-07-13T06:18:33;23.79;53.56
22917;DHT22;11624;53.250;7.456;2023-07-13T06:21:05;23.88;53.43
22917;DHT22;11624;53.250;7.456;2023-07-13T06:23:35;23.82;53.79
22917;DHT22;11624;53.250;7.456;2023-07-13T06:26:03;23.97;53.36
22917;DHT22;11624;53.250;7.456;2023-07-13T06:28:32;24.01;53.59
22917;DHT22;11624;53.250;7.456;2023-07-13T06:31:00;24.18;53.52
22917;DHT22;11624;53.250;7.456;2023-07-13T06:33:29;24.23;53.27
22917;DHT22;11624;53.250;7.456;2023-07-13T06:35:58;24.28;52.76
22917;DHT22;11624;53.250;7.456;2023-07-13T06:38:26;24.39;52.78
22917;DHT22;11624;53.250;7.456;2023-07-13T06:40:54;24.41;52.80
22917;DHT22;11624;53.250;7.456;2023-07-13T06:43:23;24.54;52.68
22917;DHT22;11624;53.250;7.456;2023-07-13T06:45:53;24.66;52.43
22917;DHT22;11624;53.250;7.456;2023-07-13T06:48:22;24.73;51.64
22917;DHT22;11624;53.250;7.456;2023-07-13T06:50:50;24.78;51.56
22917;DHT22;11624;53.250;7.456;2023-07-13T06:53:21;24.73;51.56
22917;DHT22;11624;53.250;7.456;2023-07-13T06:55:50;24.83;51.78
22917;DHT22;11624;53.250;7.456;2023-07-13T06:58:19;25.02;51.09
22917;DHT22;11624;53.250;7.456;2023-07-13T07:00:50;25.04;50.47
22917;DHT22;11624;53.250;7.456;2023-07-13T07:03:18;25.02;50.20
22917;DHT22;11624;53.250;7.456;2023-07-13T07:05:46;25.24;49.69
22917;DHT22;11624;53.250;7.456;2023-07-13T07:08:15;25.48;49.31
22917;DHT22;11624;53.250;7.456;2023-07-13T07:10:44;25.45;48.53
22917;DHT22;11624;53.250;7.456;2023-07-13T07:13:13;25.60;49.19
22917;DHT22;11624;53.250;7.456;2023-07-13T07:15:41;25.72;48.90
22917;DHT22;11624;53.250;7.456;2023-07-13T07:18:09;25.84;48.54
22917;DHT22;11624;53.250;7.456;2023-07-13T07:20:37;25.89;48.15
22917;DHT22;11624;53.250;7.456;2023-07-13T07:23:05;25.83;48.37
22917;DHT22;11624;53.250;7.456;2023-07-13T07:25:33;25.93;47.50
22917;DHT22;11624;53.250;7.456;2023-07-13T07:28:05;26.12;47.81
22917;DHT22;11624;53.250;7.456;2023-07-13T07:30:36;26.39;46.67
22917;DHT22;11624;53.250;7.456;2023-07-13T07:33:08;26.76;45.40
22917;DHT22;11624;53.250;7.456;2023-07-13T07:35:36;27.04;45.10
22917;DHT22;11624;53.250;7.456;2023-07-13T07:38:24;27.40;43.79
22917;DHT22;11624;53.250;7.456;2023-07-13T07:40:53;27.66;43.50
22917;DHT22;11624;53.250;7.456;2023-07-13T07:43:25;27.91;41.94
22917;DHT22;11624;53.250;7.456;2023-07-13T07:45:54;27.95;42.19
22917;DHT22;11624;53.250;7.456;2023-07-13T07:48:22;27.81;42.42
22917;DHT22;11624;53.250;7.456;2023-07-13T07:50:50;27.54;41.83
22917;DHT22;11624;53.250;7.456;2023-07-13T07:53:18;27.59;41.63
22917;DHT22;11624;53.250;7.456;2023-07-13T07:55:46;27.83;41.94
22917;DHT22;11624;53.250;7.456;2023-07-13T07:58:17;28.14;40.97
22917;DHT22;11624;53.250;7.456;2023-07-13T08:01:06;28.09;40.19
22917;DHT22;11624;53.250;7.456;2023-07-13T08:03:37;28.33;39.95
22917;DHT22;11624;53.250;7.456;2023-07-13T08:06:08;28.32;38.82
22917;DHT22;11624;53.250;7.456;2023-07-13T08:08:39;28.23;39.46
22917;DHT22;11624;53.250;7.456;2023-07-13T08:11:08;28.47;39.42
22917;DHT22;11624;53.250;7.456;2023-07-13T08:13:40;28.84;38.53
22917;DHT22;11624;53.250;7.456;2023-07-13T08:16:10;29.04;37.01
22917;DHT22;11624;53.250;7.456;2023-07-13T08:18:38;29.06;37.07
22917;DHT22;11624;53.250;7.456;2023-07-13T08:21:07;29.17;36.46
22917;DHT22;11624;53.250;7.456;2023-07-13T08:23:36;29.15;35.98
22917;DHT22;11624;53.250;7.456;2023-07-13T08:26:05;29.18;35.98
22917;DHT22;11624;53.250;7.456;2023-07-13T08:28:35;29.04;35.50
22917;DHT22;11624;53.250;7.456;2023-07-13T08:31:04;28.84;36.44
22917;DHT22;11624;53.250;7.456;2023-07-13T08:33:34;28.70;36.18
22917;DHT22;11624;53.250;7.456;2023-07-13T08:36:02;28.43;37.43
22917;DHT22;11624;53.250;7.456;2023-07-13T08:38:31;27.98;38.20
22917;DHT22;11624;53.250;7.456;2023-07-13T08:41:00;27.89;38.76
22917;DHT22;11624;53.250;7.456;2023-07-13T08:43:34;27.94;38.82
22917;DHT22;11624;53.250;7.456;2023-07-13T08:46:08;27.58;39.22
22917;DHT22;11624;53.250;7.456;2023-07-13T08:48:43;27.50;38.87
22917;DHT22;11624;53.250;7.456;2023-07-13T08:51:22;27.46;38.78
22917;DHT22;11624;53.250;7.456;2023-07-13T08:53:57;27.31;37.56
22917;DHT22;11624;53.250;7.456;2023-07-13T08:56:29;27.46;36.91
22917;DHT22;11624;53.250;7.456;2023-07-13T08:59:00;27.59;37.84
22917;DHT22;11624;53.250;7.456;2023-07-13T09:01:45;27.69;39.26
22917;DHT22;11624;53.250;7.456;2023-07-13T09:04:20;27.60;39.46
22917;DHT22;11624;53.250;7.456;2023-07-13T09:07:00;27.57;39.49
22917;DHT22;11624;53.250;7.456;2023-07-13T09:09:37;27.42;39.23
22917;DHT22;11624;53.250;7.456;2023-07-13T09:12:11;27.26;40.23
22917;DHT22;11624;53.250;7.456;2023-07-13T09:14:44;26.78;42.81
22917;DHT22;11624;53.250;7.456;2023-07-13T09:17:17;26.43;44.32
22917;DHT22;11624;53.250;7.456;2023-07-13T09:19:53;25.89;45.95
22917;DHT22;11624;53.250;7.456;2023-07-13T09:22:22;25.56;46.19
22917;DHT22;11624;53.250;7.456;2023-07-13T09:25:02;25.14;49.53
22917;DHT22;11624;53.250;7.456;2023-07-13T09:27:36;25.10;49.85
22917;DHT22;11624;53.250;7.456;2023-07-13T09:30:23;25.22;50.99
22917;DHT22;11624;53.250;7.456;2023-07-13T09:32:53;25.42;51.15
22917;DHT22;11624;53.250;7.456;2023-07-13T09:35:26;25.61;50.90
22917;DHT22;11624;53.250;7.456;2023-07-13T09:38:03;25.88;50.37
22917;DHT22;11624;53.250;7.456;2023-07-13T09:40:42;25.94;48.45
22917;DHT22;11624;53.250;7.456;2023-07-13T09:43:13;25.87;47.49
22917;DHT22;11624;53.250;7.456;2023-07-13T09:45:45;25.57;47.58
22917;DHT22;11624;53.250;7.456;2023-07-13T09:48:15;25.53;47.96
22917;DHT22;11624;53.250;7.456;2023-07-13T09:50:45;25.30;47.72
22917;DHT22;11624;53.250;7.456;2023-07-13T09:53:15;25.12;47.10
22917;DHT22;11624;53.250;7.456;2023-07-13T09:55:44;24.94;47.47
22917;DHT22;11624;53.250;7.456;2023-07-13T09:58:19;24.82;47.79
22917;DHT22;11624;53.250;7.456;2023-07-13T10:00:56;24.72;48.02
22917;DHT22;11624;53.250;7.456;2023-07-13T10:03:27;24.84;48.43
22917;DHT22;11624;53.250;7.456;2023-07-13T10:06:09;24.83;47.73
22917;DHT22;11624;53.250;7.456;2023-07-13T10:08:38;24.70;48.75
22917;DHT22;11624;53.250;7.456;2023-07-13T10:11:10;24.82;49.50
22917;DHT22;11624;53.250;7.456;2023-07-13T10:13:42;25.04;49.19
22917;DHT22;11624;53.250;7.456;2023-07-13T10:16:12;25.45;48.23
22917;DHT22;11624;53.250;7.456;2023-07-13T10:18:44;25.57;46.46
22917;DHT22;11624;53.250;7.456;2023-07-13T10:21:17;25.86;45.00
22917;DHT22;11624;53.250;7.456;2023-07-13T10:24:06;26.07;43.99
22917;DHT22;11624;53.250;7.456;2023-07-13T10:26:42;26.07;44.12
22917;DHT22;11624;53.250;7.456;2023-07-13T10:29:14;26.21;43.62
22917;DHT22;11624;53.250;7.456;2023-07-13T10:31:45;26.34;42.78
22917;DHT22;11624;53.250;7.456;2023-07-13T10:34:14;26.35;42.88
22917;DHT22;11624;53.250;7.456;2023-07-13T10:36:45;26.64;42.55
22917;DHT22;11624;53.250;7.456;2023-07-13T10:39:16;26.61;42.25
22917;DHT22;11624;53.250;7.456;2023-07-13T10:41:48;26.30;42.96
22917;DHT22;11624;53.250;7.456;2023-07-13T10:44:22;26.32;43.42
22917;DHT22;11624;53.250;7.456;2023-07-13T10:46:55;26.27;42.98
22917;DHT22;11624;53.250;7.456;2023-07-13T10:49:24;26.20;43.09
22917;DHT22;11624;53.250;7.456;2023-07-13T10:51:55;26.30;43.19
22917;DHT22;11624;53.250;7.456;2023-07-13T10:54:28;26.31;44.22
22917;DHT22;11624;53.250;7.456;2023-07-13T10:57:16;26.87;44.74
22917;DHT22;11624;53.250;7.456;2023-07-13T10:59:47;27.30;43.45
22917;DHT22;11624;53.250;7.456;2023-07-13T11:02:24;27.88;42.30
22917;DHT22;11624;53.250;7.456;2023-07-13T11:04:54;28.12;41.82
22917;DHT22;11624;53.250;7.456;2023-07-13T11:07:26;28.26;40.85
22917;DHT22;11624;53.250;7.456;2023-07-13T11:09:56;28.34;40.94
22917;DHT22;11624;53.250;7.456;2023-07-13T11:12:49;28.02;41.50
22917;DHT22;11624;53.250;7.456;2023-07-13T11:15:30;27.93;39.17
22917;DHT22;11624;53.250;7.456;2023-07-13T11:18:03;27.72;39.89
22917;DHT22;11624;53.250;7.456;2023-07-13T11:20:34;27.55;40.48
22917;DHT22;11624;53.250;7.456;2023-07-13T11:23:20;27.70;40.91
22917;DHT22;11624;53.250;7.456;2023-07-13T11:25:49;27.94;40.92
22917;DHT22;11624;53.250;7.456;2023-07-13T11:28:21;27.91;39.10
22917;DHT22;11624;53.250;7.456;2023-07-13T11:31:10;28.32;37.82
22917;DHT22;11624;53.250;7.456;2023-07-13T11:33:56;28.57;35.69
22917;DHT22;11624;53.250;7.456;2023-07-13T11:36:31;28.70;34.03
22917;DHT22;11624;53.250;7.456;2023-07-13T11:39:14;28.72;34.43
22917;DHT22;11624;53.250;7.456;2023-07-13T11:41:49;29.04;34.68
22917;DHT22;11624;53.250;7.456;2023-07-13T11:44:21;29.42;35.16
22917;DHT22;11624;53.250;7.456;2023-07-13T11:46:52;29.72;33.63
22917;DHT22;11624;53.250;7.456;2023-07-13T11:49:23;29.56;33.38
22917;DHT22;11624;53.250;7.456;2023-07-13T11:51:51;29.37;34.68
22917;DHT22;11624;53.250;7.456;2023-07-13T11:54:29;29.06;34.30
22917;DHT22;11624;53.250;7.456;2023-07-13T11:57:00;28.79;34.99
22917;DHT22;11624;53.250;7.456;2023-07-13T11:59:30;28.59;35.90
22917;DHT22;11624;53.250;7.456;2023-07-13T12:02:00;28.92;36.48
22917;DHT22;11624;53.250;7.456;2023-07-13T12:04:31;29.36;36.02
22917;DHT22;11624;53.250;7.456;2023-07-13T12:07:05;29.42;35.11
22917;DHT22;11624;53.250;7.456;2023-07-13T12:09:35;29.27;35.32
22917;DHT22;11624;53.250;7.456;2023-07-13T12:12:10;28.88;35.21
22917;DHT22;11624;53.250;7.456;2023-07-13T12:14:40;28.74;36.33
22917;DHT22;11624;53.250;7.456;2023-07-13T12:17:15;28.68;36.83
22917;DHT22;11624;53.250;7.456;2023-07-13T12:19:44;28.85;37.24
22917;DHT22;11624;53.250;7.456;2023-07-13T12:22:14;28.92;36.32
22917;DHT22;11624;53.250;7.456;2023-07-13T12:24:45;28.74;36.11
22917;DHT22;11624;53.250;7.456;2023-07-13T12:27:20;28.58;37.32
22917;DHT22;11624;53.250;7.456;2023-07-13T12:29:51;28.57;37.50
22917;DHT22;11624;53.250;7.456;2023-07-13T12:32:21;28.62;38.20
22917;DHT22;11624;53.250;7.456;2023-07-13T12:34:53;28.62;38.54
22917;DHT22;11624;53.250;7.456;2023-07-13T12:37:23;28.73;37.63
22917;DHT22;11624;53.250;7.456;2023-07-13T12:39:53;28.91;37.15
22917;DHT22;11624;53.250;7.456;2023-07-13T12:42:24;29.02;38.39
22917;DHT22;11624;53.250;7.456;2023-07-13T12:44:57;28.70;38.75
22917;DHT22;11624;53.250;7.456;2023-07-13T12:47:25;28.44;39.60
22917;DHT22;11624;53.250;7.456;2023-07-13T12:49:55;27.89;40.65
22917;DHT22;11624;53.250;7.456;2023-07-13T12:52:29;27.65;41.15
22917;DHT22;11624;53.250;7.456;2023-07-13T12:55:05;27.58;40.59
22917;DHT22;11624;53.250;7.456;2023-07-13T12:57:40;27.53;40.88
22917;DHT22;11624;53.250;7.456;2023-07-13T13:00:22;27.44;40.68
22917;DHT22;11624;53.250;7.456;2023-07-13T13:02:53;27.46;41.63
22917;DHT22;11624;53.250;7.456;2023-07-13T13:05:42;27.44;42.16
22917;DHT22;11624;53.250;7.456;2023-07-13T13:08:12;27.45;42.48
22917;DHT22;11624;53.250;7.456;2023-07-13T13:10:42;27.37;43.28
22917;DHT22;11624;53.250;7.456;2023-07-13T13:13:12;27.30;43.49
22917;DHT22;11624;53.250;7.456;2023-07-13T13:15:40;27.31;43.48
22917;DHT22;11624;53.250;7.456;2023-07-13T13:18:15;27.28;43.46
22917;DHT22;11624;53.250;7.456;2023-07-13T13:20:44;27.28;44.28
22917;DHT22;11624;53.250;7.456;2023-07-13T13:23:13;27.31;44.42
22917;DHT22;11624;53.250;7.456;2023-07-13T13:25:47;27.45;43.96
22917;DHT22;11624;53.250;7.456;2023-07-13T13:28:18;27.57;44.33
22917;DHT22;11624;53.250;7.456;2023-07-13T13:30:48;27.74;43.37
22917;DHT22;11624;53.250;7.456;2023-07-13T13:33:19;28.17;41.52
22917;DHT22;11624;53.250;7.456;2023-07-13T13:35:48;28.49;40.11
22917;DHT22;11624;53.250;7.456;2023-07-13T13:38:19;28.40;37.79
22917;DHT22;11624;53.250;7.456;2023-07-13T13:40:49;28.12;38.69
22917;DHT22;11624;53.250;7.456;2023-07-13T13:43:18;28.26;39.47
22917;DHT22;11624;53.250;7.456;2023-07-13T13:45:47;28.79;39.28
22917;DHT22;11624;53.250;7.456;2023-07-13T13:48:18;29.04;36.75
22917;DHT22;11624;53.250;7.456;2023-07-13T13:50:47;29.01;36.37
22917;DHT22;11624;53.250;7.456;2023-07-13T13:53:15;29.16;36.21
22917;DHT22;11624;53.250;7.456;2023-07-13T13:55:43;29.29;36.91
22917;DHT22;11624;53.250;7.456;2023-07-13T13:58:15;29.23;34.73
22917;DHT22;11624;53.250;7.456;2023-07-13T14:00:43;29.50;34.50
22917;DHT22;11624;53.250;7.456;2023-07-13T14:03:15;29.75;34.28
22917;DHT22;11624;53.250;7.456;2023-07-13T14:05:44;30.01;35.35
22917;DHT22;11624;53.250;7.456;2023-07-13T14:08:14;30.41;33.12
22917;DHT22;11624;53.250;7.456;2023-07-13T14:10:44;30.26;30.34
22917;DHT22;11624;53.250;7.456;2023-07-13T14:13:17;30.41;29.06
22917;DHT22;11624;53.250;7.456;2023-07-13T14:15:46;30.57;27.96
22917;DHT22;11624;53.250;7.456;2023-07-13T14:18:14;30.52;27.62
22917;DHT22;11624;53.250;7.456;2023-07-13T14:20:45;30.39;28.86
22917;DHT22;11624;53.250;7.456;2023-07-13T14:23:15;30.32;29.31
22917;DHT22;11624;53.250;7.456;2023-07-13T14:25:45;30.49;30.91
22917;DHT22;11624;53.250;7.456;2023-07-13T14:28:24;30.61;30.96
22917;DHT22;11624;53.250;7.456;2023-07-13T14:30:53;30.71;31.57
22917;DHT22;11624;53.250;7.456;2023-07-13T14:33:22;30.65;30.44
22917;DHT22;11624;53.250;7.456;2023-07-13T14:35:50;30.42;29.43
22917;DHT22;11624;53.250;7.456;2023-07-13T14:38:20;30.35;30.86
22917;DHT22;11624;53.250;7.456;2023-07-13T14:40:48;30.36;32.15
22917;DHT22;11624;53.250;7.456;2023-07-13T14:43:17;30.67;33.25
22917;DHT22;11624;53.250;7.456;2023-07-13T14:45:49;30.70;32.89
22917;DHT22;11624;53.250;7.456;2023-07-13T14:48:20;30.42;33.84
22917;DHT22;11624;53.250;7.456;2023-07-13T14:50:53;30.48;34.23
22917;DHT22;11624;53.250;7.456;2023-07-13T14:53:21;30.79;34.19
22917;DHT22;11624;53.250;7.456;2023-07-13T14:55:50;30.86;33.97
22917;DHT22;11624;53.250;7.456;2023-07-13T14:58:18;30.90;33.10
22917;DHT22;11624;53.250;7.456;2023-07-13T15:00:48;30.86;34.41
22917;DHT22;11624;53.250;7.456;2023-07-13T15:03:19;30.74;33.72
22917;DHT22;11624;53.250;7.456;2023-07-13T15:05:49;30.68;33.67
22917;DHT22;11624;53.250;7.456;2023-07-13T15:08:17;30.78;33.95
22917;DHT22;11624;53.250;7.456;2023-07-13T15:10:45;30.69;33.84
22917;DHT22;11624;53.250;7.456;2023-07-13T15:13:16;30.71;34.12
22917;DHT22;11624;53.250;7.456;2023-07-13T15:15:46;30.40;33.86
22917;DHT22;11624;53.250;7.456;2023-07-13T15:18:19;29.89;34.63
22917;DHT22;11624;53.250;7.456;2023-07-13T15:20:48;29.77;35.05
22917;DHT22;11624;53.250;7.456;2023-07-13T15:23:17;29.52;35.65
22917;DHT22;11624;53.250;7.456;2023-07-13T15:25:45;29.54;36.48
22917;DHT22;11624;53.250;7.456;2023-07-13T15:28:14;29.62;35.60
22917;DHT22;11624;53.250;7.456;2023-07-13T15:30:45;29.48;36.43
22917;DHT22;11624;53.250;7.456;2023-07-13T15:33:20;29.57;36.37
22917;DHT22;11624;53.250;7.456;2023-07-13T15:35:50;29.79;36.27
22917;DHT22;11624;53.250;7.456;2023-07-13T15:38:22;29.75;36.07
22917;DHT22;11624;53.250;7.456;2023-07-13T15:40:50;29.45;36.24
22917;DHT22;11624;53.250;7.456;2023-07-13T15:43:19;29.20;36.54
22917;DHT22;11624;53.250;7.456;2023-07-13T15:45:48;28.86;37.10
22917;DHT22;11624;53.250;7.456;2023-07-13T15:48:20;29.00;37.60
22917;DHT22;11624;53.250;7.456;2023-07-13T15:50:50;29.39;36.79
22917;DHT22;11624;53.250;7.456;2023-07-13T15:53:20;29.51;35.68
22917;DHT22;11624;53.250;7.456;2023-07-13T15:55:49;29.33;35.72